sensor_id;sensor_type;location;lat;lon;timestamp;temperature;humidity
11764;DHT22;5939;56.522;14.950;2024-03-07T00:00:34;3.30;99.90
11764;DHT22;5939;56.522;14.950;2024-03-07T00:03:01;3.30;99.90
11764;DHT22;5939;56.522;14.950;2024-03-07T00:05:27;3.30;99.90
11764;DHT22;5939;56.522;14.950;2024-03-07T00:07:53;3.30;99.90
11764;DHT22;5939;56.522;14.950;2024-03-07T00:10:19;3.30;99.90
11764;DHT22;5939;56.522;14.950;2024-03-07T00:12:46;3.30;99.90
11764;DHT22;5939;56.522;14.950;2024-03-07T00:15:14;3.30;99.90
11764;DHT22;5939;56.522;14.950;2024-03-07T00:17:41;3.30;99.90
11764;DHT22;5939;56.522;14.950;2024-03-07T00:20:07;3.30;99.90
11764;DHT22;5939;56.522;14.950;2024-03-07T00:22:44;3.30;99.90
11764;DHT22;5939;56.522;14.950;2024-03-07T00:25:10;3.30;99.90
11764;DHT22;5939;56.522;14.950;2024-03-07T00:27:38;3.30;99.90
11764;DHT22;5939;56.522;14.950;2024-03-07T00:30:05;3.20;99.90
11764;DHT22;5939;56.522;14.950;2024-03-07T00:32:31;3.30;99.90
11764;DHT22;5939;56.522;14.950;2024-03-07T00:35:01;3.30;99.90
11764;DHT22;5939;56.522;14.950;2024-03-07T00:37:29;3.20;99.90
11764;DHT22;5939;56.522;14.950;2024-03-07T00:39:56;3.20;99.90
11764;DHT22;5939;56.522;14.950;2024-03-07T00:42:21;3.20;99.90
11764;DHT22;5939;56.522;14.950;2024-03-07T00:44:47;3.30;99.90
11764;DHT22;5939;56.522;14.950;2024-03-07T00:47:15;3.20;99.90
11764;DHT22;5939;56.522;14.950;2024-03-07T00:49:41;3.20;99.90
11764;DHT22;5939;56.522;14.950;2024-03-07T00:52:07;3.20;99.90
11764;DHT22;5939;56.522;14.950;2024-03-07T00:54:34;3.20;99.90
11764;DHT22;5939;56.522;14.950;2024-03-07T00:57:00;3.20;99.90
11764;DHT22;5939;56.522;14.950;2024-03-07T00:59:25;3.10;99.90
11764;DHT22;5939;56.522;14.950;2024-03-07T01:01:51;3.20;99.90
11764;DHT22;5939;56.522;14.950;2024-03-07T01:04:17;3.20;99.90
11764;DHT22;5939;56.522;14.950;2024-03-07T01:06:43;3.20;99.90
11764;DHT22;5939;56.522;14.950;2024-03-07T01:09:08;3.10;99.90
11764;DHT22;5939;56.522;14.950;2024-03-07T01:11:43;3.10;99.90
11764;DHT22;5939;56.522;14.950;2024-03-07T01:14:10;3.10;99.90
11764;DHT22;5939;56.522;14.950;2024-03-07T01:16:36;3.10;99.90
11764;DHT22;5939;56.522;14.950;2024-03-07T01:19:02;3.10;99.90
11764;DHT22;5939;56.522;14.950;2024-03-07T01:21:32;3.10;99.90
11764;DHT22;5939;56.522;14.950;2024-03-07T01:23:58;3.10;99.90
11764;DHT22;5939;56.522;14.950;2024-03-07T01:26:24;3.10;99.90
11764;DHT22;5939;56.522;14.950;2024-03-07T01:28:50;3.10;99.90
11764;DHT22;5939;56.522;14.950;2024-03-07T01:31:15;3.10;99.90
11764;DHT22;5939;56.522;14.950;2024-03-07T01:33:41;3.10;99.90
11764;DHT22;5939;56.522;14.950;2024-03-07T01:36:07;3.10;99.90
11764;DHT22;5939;56.522;14.950;2024-03-07T01:38:32;3.10;99.90
11764;DHT22;5939;56.522;14.950;2024-03-07T01:40:58;3.00;99.90
11764;DHT22;5939;56.522;14.950;2024-03-07T01:43:24;3.10;99.90
11764;DHT22;5939;56.522;14.950;2024-03-07T01:45:53;3.00;99.90
11764;DHT22;5939;56.522;14.950;2024-03-07T01:48:27;3.00;99.90
11764;DHT22;5939;56.522;14.950;2024-03-07T01:50:58;3.10;99.90
11764;DHT22;5939;56.522;14.950;2024-03-07T01:53:26;3.00;99.90
11764;DHT22;5939;56.522;14.950;2024-03-07T01:55:52;3.00;99.90
11764;DHT22;5939;56.522;14.950;2024-03-07T01:58:21;3.00;99.90
11764;DHT22;5939;56.522;14.950;2024-03-07T02:00:47;3.00;99.90
11764;DHT22;5939;56.522;14.950;2024-03-07T02:03:13;3.00;99.90
11764;DHT22;5939;56.522;14.950;2024-03-07T02:05:40;3.00;99.90
11764;DHT22;5939;56.522;14.950;2024-03-07T02:08:05;3.00;99.90
11764;DHT22;5939;56.522;14.950;2024-03-07T02:10:31;3.00;99.90
11764;DHT22;5939;56.522;14.950;2024-03-07T02:12:57;3.00;99.90
11764;DHT22;5939;56.522;14.950;2024-03-07T02:15:22;3.00;99.90
11764;DHT22;5939;56.522;14.950;2024-03-07T02:17:48;2.90;99.90
11764;DHT22;5939;56.522;14.950;2024-03-07T02:20:14;3.00;99.90
11764;DHT22;5939;56.522;14.950;2024-03-07T02:22:41;2.90;99.90
11764;DHT22;5939;56.522;14.950;2024-03-07T02:25:07;2.90;99.90
11764;DHT22;5939;56.522;14.950;2024-03-07T02:27:38;2.90;99.90
11764;DHT22;5939;56.522;14.950;2024-03-07T02:30:04;2.90;99.90
11764;DHT22;5939;56.522;14.950;2024-03-07T02:32:31;2.90;99.90
11764;DHT22;5939;56.522;14.950;2024-03-07T02:34:56;2.90;99.90
11764;DHT22;5939;56.522;14.950;2024-03-07T02:37:22;2.90;99.90
11764;DHT22;5939;56.522;14.950;2024-03-07T02:39:48;2.90;99.90
11764;DHT22;5939;56.522;14.950;2024-03-07T02:42:14;2.90;99.90
11764;DHT22;5939;56.522;14.950;2024-03-07T02:44:39;2.90;99.90
11764;DHT22;5939;56.522;14.950;2024-03-07T02:47:06;2.90;99.90
11764;DHT22;5939;56.522;14.950;2024-03-07T02:49:32;2.90;99.90
11764;DHT22;5939;56.522;14.950;2024-03-07T02:51:58;2.90;99.90
11764;DHT22;5939;56.522;14.950;2024-03-07T02:54:23;2.90;99.90
11764;DHT22;5939;56.522;14.950;2024-03-07T02:56:49;2.90;99.90
11764;DHT22;5939;56.522;14.950;2024-03-07T02:59:15;2.80;99.90
11764;DHT22;5939;56.522;14.950;2024-03-07T03:01:42;2.80;99.90
11764;DHT22;5939;56.522;14.950;2024-03-07T03:04:07;2.80;99.90
11764;DHT22;5939;56.522;14.950;2024-03-07T03:06:33;2.80;99.90
11764;DHT22;5939;56.522;14.950;2024-03-07T03:08:59;2.80;99.90
11764;DHT22;5939;56.522;14.950;2024-03-07T03:11:25;2.80;99.90
11764;DHT22;5939;56.522;14.950;2024-03-07T03:13:53;2.80;99.90
11764;DHT22;5939;56.522;14.950;2024-03-07T03:16:19;2.80;99.90
11764;DHT22;5939;56.522;14.950;2024-03-07T03:18:45;2.80;99.90
11764;DHT22;5939;56.522;14.950;2024-03-07T03:21:10;2.80;99.90
11764;DHT22;5939;56.522;14.950;2024-03-07T03:23:36;2.80;99.90
11764;DHT22;5939;56.522;14.950;2024-03-07T03:26:02;2.80;99.90
11764;DHT22;5939;56.522;14.950;2024-03-07T03:28:29;2.80;99.90
11764;DHT22;5939;56.522;14.950;2024-03-07T03:30:54;2.80;99.90
11764;DHT22;5939;56.522;14.950;2024-03-07T03:33:20;2.80;99.90
11764;DHT22;5939;56.522;14.950;2024-03-07T03:35:48;2.80;99.90
11764;DHT22;5939;56.522;14.950;2024-03-07T03:38:14;2.70;99.90
11764;DHT22;5939;56.522;14.950;2024-03-07T03:40:41;2.70;99.90
11764;DHT22;5939;56.522;14.950;2024-03-07T03:43:07;2.70;99.90
11764;DHT22;5939;56.522;14.950;2024-03-07T03:45:33;2.70;99.90
11764;DHT22;5939;56.522;14.950;2024-03-07T03:47:59;2.70;99.90
11764;DHT22;5939;56.522;14.950;2024-03-07T03:50:25;2.70;99.90
11764;DHT22;5939;56.522;14.950;2024-03-07T03:52:52;2.70;99.90
11764;DHT22;5939;56.522;14.950;2024-03-07T03:55:18;2.70;99.90
11764;DHT22;5939;56.522;14.950;2024-03-07T03:57:44;2.70;99.90
11764;DHT22;5939;56.522;14.950;2024-03-07T04:00:12;2.70;99.90
11764;DHT22;5939;56.522;14.950;2024-03-07T04:02:45;2.70;99.90
11764;DHT22;5939;56.522;14.950;2024-03-07T04:05:14;2.70;99.90
11764;DHT22;5939;56.522;14.950;2024-03-07T04:07:40;2.60;99.90
11764;DHT22;5939;56.522;14.950;2024-03-07T04:10:08;2.70;99.90
11764;DHT22;5939;56.522;14.950;2024-03-07T04:12:35;2.70;99.90
11764;DHT22;5939;56.522;14.950;2024-03-07T04:15:00;2.60;99.90
11764;DHT22;5939;56.522;14.950;2024-03-07T04:17:26;2.60;99.90
11764;DHT22;5939;56.522;14.950;2024-03-07T04:19:52;2.60;99.90
11764;DHT22;5939;56.522;14.950;2024-03-07T04:22:18;2.60;99.90
11764;DHT22;5939;56.522;14.950;2024-03-07T04:24:48;2.60;99.90
11764;DHT22;5939;56.522;14.950;2024-03-07T04:27:19;2.60;99.90
11764;DHT22;5939;56.522;14.950;2024-03-07T04:29:46;2.60;99.90
11764;DHT22;5939;56.522;14.950;2024-03-07T04:32:15;2.60;99.90
11764;DHT22;5939;56.522;14.950;2024-03-07T04:34:43;2.50;99.90
11764;DHT22;5939;56.522;14.950;2024-03-07T04:37:09;2.50;99.90
11764;DHT22;5939;56.522;14.950;2024-03-07T04:39:34;2.50;99.90
11764;DHT22;5939;56.522;14.950;2024-03-07T04:42:04;2.50;99.90
11764;DHT22;5939;56.522;14.950;2024-03-07T04:44:32;2.50;99.90
11764;DHT22;5939;56.522;14.950;2024-03-07T04:46:58;2.50;99.90
11764;DHT22;5939;56.522;14.950;2024-03-07T04:49:26;2.50;99.90
11764;DHT22;5939;56.522;14.950;2024-03-07T04:51:53;2.50;99.90
11764;DHT22;5939;56.522;14.950;2024-03-07T04:54:20;2.50;99.90
11764;DHT22;5939;56.522;14.950;2024-03-07T04:56:46;2.50;99.90
11764;DHT22;5939;56.522;14.950;2024-03-07T04:59:12;2.50;99.90
11764;DHT22;5939;56.522;14.950;2024-03-07T05:01:39;2.40;99.90
11764;DHT22;5939;56.522;14.950;2024-03-07T05:04:06;2.40;99.90
11764;DHT22;5939;56.522;14.950;2024-03-07T05:06:32;2.40;99.90
11764;DHT22;5939;56.522;14.950;2024-03-07T05:09:04;2.40;99.90
11764;DHT22;5939;56.522;14.950;2024-03-07T05:11:32;2.40;99.90
11764;DHT22;5939;56.522;14.950;2024-03-07T05:13:58;2.40;99.90
11764;DHT22;5939;56.522;14.950;2024-03-07T05:16:28;2.40;99.90
11764;DHT22;5939;56.522;14.950;2024-03-07T05:18:55;2.40;99.90
11764;DHT22;5939;56.522;14.950;2024-03-07T05:21:25;2.40;99.90
11764;DHT22;5939;56.522;14.950;2024-03-07T05:23:57;2.40;99.90
11764;DHT22;5939;56.522;14.950;2024-03-07T05:26:23;2.30;99.90
11764;DHT22;5939;56.522;14.950;2024-03-07T05:28:49;2.30;99.90
11764;DHT22;5939;56.522;14.950;2024-03-07T05:31:14;2.30;99.90
11764;DHT22;5939;56.522;14.950;2024-03-07T05:33:43;2.30;99.90
11764;DHT22;5939;56.522;14.950;2024-03-07T05:36:09;2.30;99.90
11764;DHT22;5939;56.522;14.950;2024-03-07T05:38:44;2.30;99.90
11764;DHT22;5939;56.522;14.950;2024-03-07T05:41:10;2.30;99.90
11764;DHT22;5939;56.522;14.950;2024-03-07T05:43:38;2.30;99.90
11764;DHT22;5939;56.522;14.950;2024-03-07T05:46:04;2.30;99.90
11764;DHT22;5939;56.522;14.950;2024-03-07T05:48:31;2.30;99.90
11764;DHT22;5939;56.522;14.950;2024-03-07T05:50:57;2.20;99.90
11764;DHT22;5939;56.522;14.950;2024-03-07T05:53:24;2.20;99.90
11764;DHT22;5939;56.522;14.950;2024-03-07T05:55:50;2.20;99.90
11764;DHT22;5939;56.522;14.950;2024-03-07T05:58:15;2.20;99.90
11764;DHT22;5939;56.522;14.950;2024-03-07T06:00:48;2.20;99.90
11764;DHT22;5939;56.522;14.950;2024-03-07T06:03:20;2.20;99.90
11764;DHT22;5939;56.522;14.950;2024-03-07T06:05:49;2.20;99.90
11764;DHT22;5939;56.522;14.950;2024-03-07T06:08:15;2.20;99.90
11764;DHT22;5939;56.522;14.950;2024-03-07T06:10:44;2.20;99.90
11764;DHT22;5939;56.522;14.950;2024-03-07T06:13:14;2.20;99.90
11764;DHT22;5939;56.522;14.950;2024-03-07T06:15:43;2.20;99.90
11764;DHT22;5939;56.522;14.950;2024-03-07T06:18:09;2.20;99.90
11764;DHT22;5939;56.522;14.950;2024-03-07T06:20:45;2.20;99.90
11764;DHT22;5939;56.522;14.950;2024-03-07T06:23:10;2.20;99.90
11764;DHT22;5939;56.522;14.950;2024-03-07T06:25:42;2.20;99.90
11764;DHT22;5939;56.522;14.950;2024-03-07T06:28:17;2.10;99.90
11764;DHT22;5939;56.522;14.950;2024-03-07T06:30:46;2.10;99.90
11764;DHT22;5939;56.522;14.950;2024-03-07T06:33:13;2.10;99.90
11764;DHT22;5939;56.522;14.950;2024-03-07T06:35:40;2.10;99.90
11764;DHT22;5939;56.522;14.950;2024-03-07T06:38:07;2.10;99.90
11764;DHT22;5939;56.522;14.950;2024-03-07T06:40:34;2.10;99.90
11764;DHT22;5939;56.522;14.950;2024-03-07T06:43:00;2.10;99.90
11764;DHT22;5939;56.522;14.950;2024-03-07T06:45:25;2.10;99.90
11764;DHT22;5939;56.522;14.950;2024-03-07T06:47:52;2.20;99.90
11764;DHT22;5939;56.522;14.950;2024-03-07T06:50:20;2.10;99.90
11764;DHT22;5939;56.522;14.950;2024-03-07T06:52:47;2.10;99.90
11764;DHT22;5939;56.522;14.950;2024-03-07T06:55:16;2.10;99.90
11764;DHT22;5939;56.522;14.950;2024-03-07T06:57:43;2.10;99.90
11764;DHT22;5939;56.522;14.950;2024-03-07T07:00:13;2.10;99.90
11764;DHT22;5939;56.522;14.950;2024-03-07T07:02:40;2.10;99.90
11764;DHT22;5939;56.522;14.950;2024-03-07T07:05:07;2.00;99.90
11764;DHT22;5939;56.522;14.950;2024-03-07T07:07:37;2.10;99.90
11764;DHT22;5939;56.522;14.950;2024-03-07T07:10:04;2.10;99.90
11764;DHT22;5939;56.522;14.950;2024-03-07T07:12:33;2.10;99.90
11764;DHT22;5939;56.522;14.950;2024-03-07T07:14:58;2.10;99.90
11764;DHT22;5939;56.522;14.950;2024-03-07T07:17:24;2.10;99.90
11764;DHT22;5939;56.522;14.950;2024-03-07T07:19:54;2.10;99.90
11764;DHT22;5939;56.522;14.950;2024-03-07T07:22:21;2.10;99.90
11764;DHT22;5939;56.522;14.950;2024-03-07T07:24:47;2.10;99.90
11764;DHT22;5939;56.522;14.950;2024-03-07T07:27:13;2.10;99.90
11764;DHT22;5939;56.522;14.950;2024-03-07T07:29:38;2.10;99.90
11764;DHT22;5939;56.522;14.950;2024-03-07T07:32:05;2.10;99.90
11764;DHT22;5939;56.522;14.950;2024-03-07T07:34:30;2.10;99.90
11764;DHT22;5939;56.522;14.950;2024-03-07T07:36:56;2.10;99.90
11764;DHT22;5939;56.522;14.950;2024-03-07T07:39:22;2.20;99.90
11764;DHT22;5939;56.522;14.950;2024-03-07T07:41:48;2.20;99.90
11764;DHT22;5939;56.522;14.950;2024-03-07T07:44:13;2.20;99.90
11764;DHT22;5939;56.522;14.950;2024-03-07T07:46:39;2.20;99.90
11764;DHT22;5939;56.522;14.950;2024-03-07T07:49:09;2.20;99.90
11764;DHT22;5939;56.522;14.950;2024-03-07T07:51:34;2.30;99.90
11764;DHT22;5939;56.522;14.950;2024-03-07T07:54:00;2.30;99.90
11764;DHT22;5939;56.522;14.950;2024-03-07T07:56:26;2.40;99.90
11764;DHT22;5939;56.522;14.950;2024-03-07T07:58:53;2.40;99.90
11764;DHT22;5939;56.522;14.950;2024-03-07T08:01:19;2.40;99.90
11764;DHT22;5939;56.522;14.950;2024-03-07T08:03:45;2.50;99.90
11764;DHT22;5939;56.522;14.950;2024-03-07T08:06:11;2.50;99.90
11764;DHT22;5939;56.522;14.950;2024-03-07T08:08:36;2.60;99.90
11764;DHT22;5939;56.522;14.950;2024-03-07T08:11:02;2.70;99.90
11764;DHT22;5939;56.522;14.950;2024-03-07T08:13:28;2.70;99.90
11764;DHT22;5939;56.522;14.950;2024-03-07T08:15:54;2.70;99.90
11764;DHT22;5939;56.522;14.950;2024-03-07T08:18:20;2.70;99.90
11764;DHT22;5939;56.522;14.950;2024-03-07T08:20:46;2.80;99.90
11764;DHT22;5939;56.522;14.950;2024-03-07T08:23:12;2.80;99.90
11764;DHT22;5939;56.522;14.950;2024-03-07T08:25:41;2.90;99.90
11764;DHT22;5939;56.522;14.950;2024-03-07T08:28:07;2.90;99.90
11764;DHT22;5939;56.522;14.950;2024-03-07T08:30:33;3.00;99.90
11764;DHT22;5939;56.522;14.950;2024-03-07T08:32:59;3.10;99.90
11764;DHT22;5939;56.522;14.950;2024-03-07T08:35:27;3.20;99.90
11764;DHT22;5939;56.522;14.950;2024-03-07T08:37:55;3.20;99.90
11764;DHT22;5939;56.522;14.950;2024-03-07T08:40:25;3.30;99.90
11764;DHT22;5939;56.522;14.950;2024-03-07T08:42:52;3.40;99.90
11764;DHT22;5939;56.522;14.950;2024-03-07T08:45:21;3.40;99.90
11764;DHT22;5939;56.522;14.950;2024-03-07T08:47:48;3.50;99.90
11764;DHT22;5939;56.522;14.950;2024-03-07T08:50:15;3.60;99.90
11764;DHT22;5939;56.522;14.950;2024-03-07T08:52:44;3.70;99.90
11764;DHT22;5939;56.522;14.950;2024-03-07T08:55:14;3.70;99.90
11764;DHT22;5939;56.522;14.950;2024-03-07T08:57:41;3.80;99.90
11764;DHT22;5939;56.522;14.950;2024-03-07T09:00:07;3.80;99.90
11764;DHT22;5939;56.522;14.950;2024-03-07T09:02:38;3.90;99.90
11764;DHT22;5939;56.522;14.950;2024-03-07T09:05:05;4.00;99.90
11764;DHT22;5939;56.522;14.950;2024-03-07T09:07:32;4.00;99.90
11764;DHT22;5939;56.522;14.950;2024-03-07T09:09:58;4.10;99.90
11764;DHT22;5939;56.522;14.950;2024-03-07T09:12:23;4.10;99.90
11764;DHT22;5939;56.522;14.950;2024-03-07T09:14:51;4.20;99.90
11764;DHT22;5939;56.522;14.950;2024-03-07T09:17:18;4.20;99.90
11764;DHT22;5939;56.522;14.950;2024-03-07T09:19:44;4.30;99.90
11764;DHT22;5939;56.522;14.950;2024-03-07T09:22:10;4.30;99.90
11764;DHT22;5939;56.522;14.950;2024-03-07T09:24:36;4.40;99.90
11764;DHT22;5939;56.522;14.950;2024-03-07T09:27:03;4.50;99.90
11764;DHT22;5939;56.522;14.950;2024-03-07T09:29:29;4.50;99.90
11764;DHT22;5939;56.522;14.950;2024-03-07T09:31:54;4.60;99.90
11764;DHT22;5939;56.522;14.950;2024-03-07T09:34:21;4.70;99.90
11764;DHT22;5939;56.522;14.950;2024-03-07T09:36:50;4.70;99.90
11764;DHT22;5939;56.522;14.950;2024-03-07T09:39:17;4.80;99.90
11764;DHT22;5939;56.522;14.950;2024-03-07T09:41:44;4.80;99.90
11764;DHT22;5939;56.522;14.950;2024-03-07T09:44:14;4.90;99.90
11764;DHT22;5939;56.522;14.950;2024-03-07T09:46:47;4.90;99.90
11764;DHT22;5939;56.522;14.950;2024-03-07T09:49:14;5.00;99.90
11764;DHT22;5939;56.522;14.950;2024-03-07T09:51:40;5.00;99.90
11764;DHT22;5939;56.522;14.950;2024-03-07T09:54:08;5.10;99.90
11764;DHT22;5939;56.522;14.950;2024-03-07T09:56:35;5.20;99.90
11764;DHT22;5939;56.522;14.950;2024-03-07T09:59:04;5.20;99.90
11764;DHT22;5939;56.522;14.950;2024-03-07T10:01:33;5.30;99.90
11764;DHT22;5939;56.522;14.950;2024-03-07T10:04:00;5.40;99.90
11764;DHT22;5939;56.522;14.950;2024-03-07T10:06:37;5.40;99.90
11764;DHT22;5939;56.522;14.950;2024-03-07T10:09:05;5.50;99.90
11764;DHT22;5939;56.522;14.950;2024-03-07T10:11:32;5.60;99.90
11764;DHT22;5939;56.522;14.950;2024-03-07T10:13:57;5.60;99.90
11764;DHT22;5939;56.522;14.950;2024-03-07T10:16:23;5.70;99.90
11764;DHT22;5939;56.522;14.950;2024-03-07T10:18:49;5.80;99.90
11764;DHT22;5939;56.522;14.950;2024-03-07T10:21:21;5.80;99.90
11764;DHT22;5939;56.522;14.950;2024-03-07T10:23:50;5.90;99.90
11764;DHT22;5939;56.522;14.950;2024-03-07T10:26:18;5.90;99.90
11764;DHT22;5939;56.522;14.950;2024-03-07T10:28:45;6.00;99.90
11764;DHT22;5939;56.522;14.950;2024-03-07T10:31:10;6.00;99.90
11764;DHT22;5939;56.522;14.950;2024-03-07T10:33:40;6.10;99.90
11764;DHT22;5939;56.522;14.950;2024-03-07T10:36:08;6.20;99.90
11764;DHT22;5939;56.522;14.950;2024-03-07T10:38:37;6.20;99.90
11764;DHT22;5939;56.522;14.950;2024-03-07T10:41:03;6.30;99.90
11764;DHT22;5939;56.522;14.950;2024-03-07T10:43:29;6.40;99.90
11764;DHT22;5939;56.522;14.950;2024-03-07T10:45:59;6.40;99.90
11764;DHT22;5939;56.522;14.950;2024-03-07T10:48:30;6.50;99.90
11764;DHT22;5939;56.522;14.950;2024-03-07T10:51:10;6.60;99.90
11764;DHT22;5939;56.522;14.950;2024-03-07T10:53:40;6.60;99.90
11764;DHT22;5939;56.522;14.950;2024-03-07T10:56:33;6.70;99.90
11764;DHT22;5939;56.522;14.950;2024-03-07T11:01:42;6.80;99.90
11764;DHT22;5939;56.522;14.950;2024-03-07T11:04:10;6.80;99.90
11764;DHT22;5939;56.522;14.950;2024-03-07T11:06:40;6.90;99.90
11764;DHT22;5939;56.522;14.950;2024-03-07T11:09:07;6.90;99.90
11764;DHT22;5939;56.522;14.950;2024-03-07T11:11:38;7.00;99.90
11764;DHT22;5939;56.522;14.950;2024-03-07T11:14:07;7.00;99.90
11764;DHT22;5939;56.522;14.950;2024-03-07T11:16:35;7.10;99.90
11764;DHT22;5939;56.522;14.950;2024-03-07T11:19:31;7.10;99.90
11764;DHT22;5939;56.522;14.950;2024-03-07T11:22:02;7.20;99.90
11764;DHT22;5939;56.522;14.950;2024-03-07T11:24:39;7.30;99.90
11764;DHT22;5939;56.522;14.950;2024-03-07T11:27:12;7.40;99.90
11764;DHT22;5939;56.522;14.950;2024-03-07T11:29:50;7.40;99.90
11764;DHT22;5939;56.522;14.950;2024-03-07T11:32:19;7.50;99.90
11764;DHT22;5939;56.522;14.950;2024-03-07T11:34:48;7.50;99.90
11764;DHT22;5939;56.522;14.950;2024-03-07T11:37:18;7.60;99.90
11764;DHT22;5939;56.522;14.950;2024-03-07T11:39:48;7.60;99.90
11764;DHT22;5939;56.522;14.950;2024-03-07T11:42:36;7.70;99.90
11764;DHT22;5939;56.522;14.950;2024-03-07T11:45:03;7.70;99.90
11764;DHT22;5939;56.522;14.950;2024-03-07T11:47:38;7.80;99.90
11764;DHT22;5939;56.522;14.950;2024-03-07T11:50:07;7.80;99.90
11764;DHT22;5939;56.522;14.950;2024-03-07T11:52:45;7.80;99.90
11764;DHT22;5939;56.522;14.950;2024-03-07T11:55:12;7.90;99.90
11764;DHT22;5939;56.522;14.950;2024-03-07T11:57:38;7.90;99.90
11764;DHT22;5939;56.522;14.950;2024-03-07T12:00:04;7.90;99.90
11764;DHT22;5939;56.522;14.950;2024-03-07T12:02:39;8.00;99.90
11764;DHT22;5939;56.522;14.950;2024-03-07T12:05:06;8.00;99.90
11764;DHT22;5939;56.522;14.950;2024-03-07T12:07:32;8.00;99.90
11764;DHT22;5939;56.522;14.950;2024-03-07T12:10:02;8.00;99.90
11764;DHT22;5939;56.522;14.950;2024-03-07T12:12:32;8.00;99.90
11764;DHT22;5939;56.522;14.950;2024-03-07T12:14:58;8.00;99.90
11764;DHT22;5939;56.522;14.950;2024-03-07T12:17:25;8.00;99.90
11764;DHT22;5939;56.522;14.950;2024-03-07T12:19:51;8.00;99.90
11764;DHT22;5939;56.522;14.950;2024-03-07T12:22:19;8.10;99.90
11764;DHT22;5939;56.522;14.950;2024-03-07T12:24:59;8.00;99.90
11764;DHT22;5939;56.522;14.950;2024-03-07T12:27:27;8.00;99.90
11764;DHT22;5939;56.522;14.950;2024-03-07T12:29:53;8.00;99.90
11764;DHT22;5939;56.522;14.950;2024-03-07T12:32:19;8.00;99.90
11764;DHT22;5939;56.522;14.950;2024-03-07T12:34:47;8.00;99.90
11764;DHT22;5939;56.522;14.950;2024-03-07T12:37:13;8.00;99.90
11764;DHT22;5939;56.522;14.950;2024-03-07T12:39:43;8.00;99.90
11764;DHT22;5939;56.522;14.950;2024-03-07T12:42:15;8.00;99.90
11764;DHT22;5939;56.522;14.950;2024-03-07T12:44:46;8.00;99.90
11764;DHT22;5939;56.522;14.950;2024-03-07T12:47:15;8.00;99.90
11764;DHT22;5939;56.522;14.950;2024-03-07T12:49:45;8.00;99.90
11764;DHT22;5939;56.522;14.950;2024-03-07T12:52:11;8.00;99.90
11764;DHT22;5939;56.522;14.950;2024-03-07T12:54:41;8.00;99.90
11764;DHT22;5939;56.522;14.950;2024-03-07T12:57:10;8.00;99.90
11764;DHT22;5939;56.522;14.950;2024-03-07T12:59:38;8.00;99.90
11764;DHT22;5939;56.522;14.950;2024-03-07T13:02:06;8.00;99.90
11764;DHT22;5939;56.522;14.950;2024-03-07T13:04:32;7.90;99.90
11764;DHT22;5939;56.522;14.950;2024-03-07T13:06:58;7.90;99.90
11764;DHT22;5939;56.522;14.950;2024-03-07T13:09:26;7.90;99.90
11764;DHT22;5939;56.522;14.950;2024-03-07T13:11:57;7.90;99.90
11764;DHT22;5939;56.522;14.950;2024-03-07T13:14:23;7.90;99.90
11764;DHT22;5939;56.522;14.950;2024-03-07T13:16:48;7.90;99.90
11764;DHT22;5939;56.522;14.950;2024-03-07T13:19:15;7.80;99.90
11764;DHT22;5939;56.522;14.950;2024-03-07T13:21:46;7.80;99.90
11764;DHT22;5939;56.522;14.950;2024-03-07T13:24:14;7.80;99.90
11764;DHT22;5939;56.522;14.950;2024-03-07T13:26:40;7.80;99.90
11764;DHT22;5939;56.522;14.950;2024-03-07T13:29:07;7.80;99.90
11764;DHT22;5939;56.522;14.950;2024-03-07T13:31:35;7.70;99.90
11764;DHT22;5939;56.522;14.950;2024-03-07T13:34:00;7.70;99.90
11764;DHT22;5939;56.522;14.950;2024-03-07T13:36:28;7.70;99.90
11764;DHT22;5939;56.522;14.950;2024-03-07T13:38:54;7.70;99.90
11764;DHT22;5939;56.522;14.950;2024-03-07T13:41:21;7.70;99.90
11764;DHT22;5939;56.522;14.950;2024-03-07T13:43:48;7.60;99.90
11764;DHT22;5939;56.522;14.950;2024-03-07T13:46:14;7.60;99.90
11764;DHT22;5939;56.522;14.950;2024-03-07T13:48:43;7.60;99.90
11764;DHT22;5939;56.522;14.950;2024-03-07T13:51:09;7.60;99.90
11764;DHT22;5939;56.522;14.950;2024-03-07T13:53:35;7.50;99.90
11764;DHT22;5939;56.522;14.950;2024-03-07T13:56:32;7.60;99.90
11764;DHT22;5939;56.522;14.950;2024-03-07T14:24:35;7.30;99.90
11764;DHT22;5939;56.522;14.950;2024-03-07T14:29:46;7.20;99.90
11764;DHT22;5939;56.522;14.950;2024-03-07T14:32:13;7.20;99.90
11764;DHT22;5939;56.522;14.950;2024-03-07T14:35:13;7.20;99.90
11764;DHT22;5939;56.522;14.950;2024-03-07T14:40:34;7.20;99.90
11764;DHT22;5939;56.522;14.950;2024-03-07T14:43:03;7.20;99.90
11764;DHT22;5939;56.522;14.950;2024-03-07T14:45:35;7.20;99.90
11764;DHT22;5939;56.522;14.950;2024-03-07T14:48:02;7.10;99.90
11764;DHT22;5939;56.522;14.950;2024-03-07T14:50:30;7.10;99.90
11764;DHT22;5939;56.522;14.950;2024-03-07T14:53:00;7.10;99.90
11764;DHT22;5939;56.522;14.950;2024-03-07T14:55:26;7.10;99.90
11764;DHT22;5939;56.522;14.950;2024-03-07T14:57:52;7.00;99.90
11764;DHT22;5939;56.522;14.950;2024-03-07T15:00:17;7.00;99.90
11764;DHT22;5939;56.522;14.950;2024-03-07T15:02:52;7.00;99.90
11764;DHT22;5939;56.522;14.950;2024-03-07T15:05:20;7.00;99.90
11764;DHT22;5939;56.522;14.950;2024-03-07T15:07:46;7.00;99.90
11764;DHT22;5939;56.522;14.950;2024-03-07T15:11:06;7.00;99.90
11764;DHT22;5939;56.522;14.950;2024-03-07T15:13:04;7.00;99.90
11764;DHT22;5939;56.522;14.950;2024-03-07T15:15:30;6.90;99.90
11764;DHT22;5939;56.522;14.950;2024-03-07T15:17:58;6.90;99.90
11764;DHT22;5939;56.522;14.950;2024-03-07T15:20:25;6.90;99.90
11764;DHT22;5939;56.522;14.950;2024-03-07T15:22:56;6.90;99.90
11764;DHT22;5939;56.522;14.950;2024-03-07T15:25:23;6.90;99.90
11764;DHT22;5939;56.522;14.950;2024-03-07T15:27:54;6.80;99.90
11764;DHT22;5939;56.522;14.950;2024-03-07T15:30:22;6.90;99.90
11764;DHT22;5939;56.522;14.950;2024-03-07T15:32:51;6.80;99.90
11764;DHT22;5939;56.522;14.950;2024-03-07T15:35:17;6.80;99.90
11764;DHT22;5939;56.522;14.950;2024-03-07T15:37:49;6.80;99.90
11764;DHT22;5939;56.522;14.950;2024-03-07T15:40:16;6.80;99.90
11764;DHT22;5939;56.522;14.950;2024-03-07T15:42:43;6.70;99.90
11764;DHT22;5939;56.522;14.950;2024-03-07T15:45:17;6.70;99.90
11764;DHT22;5939;56.522;14.950;2024-03-07T15:47:49;6.70;99.90
11764;DHT22;5939;56.522;14.950;2024-03-07T15:50:15;6.70;99.90
11764;DHT22;5939;56.522;14.950;2024-03-07T15:52:44;6.70;99.90
11764;DHT22;5939;56.522;14.950;2024-03-07T15:55:10;6.70;99.90
11764;DHT22;5939;56.522;14.950;2024-03-07T15:57:46;6.70;99.90
11764;DHT22;5939;56.522;14.950;2024-03-07T16:00:17;6.70;99.90
11764;DHT22;5939;56.522;14.950;2024-03-07T16:03:09;6.60;99.90
11764;DHT22;5939;56.522;14.950;2024-03-07T16:05:38;6.70;99.90
11764;DHT22;5939;56.522;14.950;2024-03-07T16:08:06;6.60;99.90
11764;DHT22;5939;56.522;14.950;2024-03-07T16:10:37;6.60;99.90
11764;DHT22;5939;56.522;14.950;2024-03-07T16:13:05;6.60;99.90
11764;DHT22;5939;56.522;14.950;2024-03-07T16:15:37;6.50;99.90
11764;DHT22;5939;56.522;14.950;2024-03-07T16:18:04;6.50;99.90
11764;DHT22;5939;56.522;14.950;2024-03-07T16:20:32;6.50;99.90
11764;DHT22;5939;56.522;14.950;2024-03-07T16:22:59;6.50;99.90